sensor_id;sensor_type;location;lat;lon;timestamp;P1;durP1;ratioP1;P2;durP2;ratioP2
60060;SDS011;45933;51.336;12.612;2024-02-21T00:01:33;13.30;;;3.17;;
60060;SDS011;45933;51.336;12.612;2024-02-21T00:03:58;13.40;;;3.57;;
60060;SDS011;45933;51.336;12.612;2024-02-21T00:06:23;12.90;;;3.10;;
60060;SDS011;45933;51.336;12.612;2024-02-21T00:08:49;15.97;;;3.40;;
60060;SDS011;45933;51.336;12.612;2024-02-21T00:11:14;11.23;;;2.80;;
60060;SDS011;45933;51.336;12.612;2024-02-21T00:13:39;12.07;;;3.70;;
60060;SDS011;45933;51.336;12.612;2024-02-21T00:16:05;12.30;;;3.23;;
60060;SDS011;45933;51.336;12.612;2024-02-21T00:18:30;9.83;;;3.00;;
60060;SDS011;45933;51.336;12.612;2024-02-21T00:20:56;11.03;;;3.17;;
60060;SDS011;45933;51.336;12.612;2024-02-21T00:23:21;9.80;;;3.07;;
60060;SDS011;45933;51.336;12.612;2024-02-21T00:25:46;8.40;;;2.97;;
60060;SDS011;45933;51.336;12.612;2024-02-21T00:28:11;12.20;;;3.73;;
60060;SDS011;45933;51.336;12.612;2024-02-21T00:30:37;11.10;;;3.10;;
60060;SDS011;45933;51.336;12.612;2024-02-21T00:33:03;15.10;;;3.20;;
60060;SDS011;45933;51.336;12.612;2024-02-21T00:35:28;8.47;;;2.90;;
60060;SDS011;45933;51.336;12.612;2024-02-21T00:37:53;10.70;;;2.97;;
60060;SDS011;45933;51.336;12.612;2024-02-21T00:40:19;13.47;;;3.10;;
60060;SDS011;45933;51.336;12.612;2024-02-21T00:42:45;12.63;;;3.27;;
60060;SDS011;45933;51.336;12.612;2024-02-21T00:45:11;13.40;;;3.17;;
60060;SDS011;45933;51.336;12.612;2024-02-21T00:47:37;11.50;;;3.13;;
60060;SDS011;45933;51.336;12.612;2024-02-21T00:50:02;12.43;;;3.60;;
60060;SDS011;45933;51.336;12.612;2024-02-21T00:52:27;12.90;;;3.47;;
60060;SDS011;45933;51.336;12.612;2024-02-21T00:54:52;11.60;;;3.20;;
60060;SDS011;45933;51.336;12.612;2024-02-21T00:57:18;8.90;;;3.30;;
60060;SDS011;45933;51.336;12.612;2024-02-21T00:59:43;16.50;;;4.23;;
60060;SDS011;45933;51.336;12.612;2024-02-21T01:02:08;8.37;;;3.10;;
60060;SDS011;45933;51.336;12.612;2024-02-21T01:04:34;10.50;;;3.30;;
60060;SDS011;45933;51.336;12.612;2024-02-21T01:06:59;10.73;;;3.20;;
60060;SDS011;45933;51.336;12.612;2024-02-21T01:09:25;12.73;;;3.83;;
60060;SDS011;45933;51.336;12.612;2024-02-21T01:11:50;12.67;;;3.90;;
60060;SDS011;45933;51.336;12.612;2024-02-21T01:14:15;11.50;;;3.80;;
60060;SDS011;45933;51.336;12.612;2024-02-21T01:16:40;11.30;;;4.00;;
60060;SDS011;45933;51.336;12.612;2024-02-21T01:19:06;12.37;;;3.40;;
60060;SDS011;45933;51.336;12.612;2024-02-21T01:21:31;13.80;;;3.43;;
60060;SDS011;45933;51.336;12.612;2024-02-21T01:23:56;15.23;;;3.40;;
60060;SDS011;45933;51.336;12.612;2024-02-21T01:26:22;9.87;;;4.10;;
60060;SDS011;45933;51.336;12.612;2024-02-21T01:28:47;13.83;;;3.47;;
60060;SDS011;45933;51.336;12.612;2024-02-21T01:31:12;14.07;;;3.67;;
60060;SDS011;45933;51.336;12.612;2024-02-21T01:33:38;14.87;;;4.33;;
60060;SDS011;45933;51.336;12.612;2024-02-21T01:36:03;10.57;;;3.40;;
60060;SDS011;45933;51.336;12.612;2024-02-21T01:38:31;10.70;;;3.13;;
60060;SDS011;45933;51.336;12.612;2024-02-21T01:40:57;12.50;;;3.07;;
60060;SDS011;45933;51.336;12.612;2024-02-21T01:43:22;14.80;;;3.50;;
60060;SDS011;45933;51.336;12.612;2024-02-21T01:45:49;10.83;;;3.43;;
60060;SDS011;45933;51.336;12.612;2024-02-21T01:48:17;14.20;;;3.67;;
60060;SDS011;45933;51.336;12.612;2024-02-21T01:50:43;9.87;;;3.03;;
60060;SDS011;45933;51.336;12.612;2024-02-21T01:53:09;12.40;;;3.43;;
60060;SDS011;45933;51.336;12.612;2024-02-21T01:55:35;12.47;;;3.80;;
60060;SDS011;45933;51.336;12.612;2024-02-21T01:58:01;13.67;;;3.80;;
60060;SDS011;45933;51.336;12.612;2024-02-21T02:00:27;9.60;;;3.50;;
60060;SDS011;45933;51.336;12.612;2024-02-21T02:02:52;12.73;;;3.53;;
60060;SDS011;45933;51.336;12.612;2024-02-21T02:05:18;13.17;;;3.40;;
60060;SDS011;45933;51.336;12.612;2024-02-21T02:07:46;9.27;;;3.33;;
60060;SDS011;45933;51.336;12.612;2024-02-21T02:10:11;11.47;;;3.27;;
60060;SDS011;45933;51.336;12.612;2024-02-21T02:12:36;16.10;;;3.60;;
60060;SDS011;45933;51.336;12.612;2024-02-21T02:15:02;16.37;;;4.40;;
60060;SDS011;45933;51.336;12.612;2024-02-21T02:17:31;15.87;;;4.53;;
60060;SDS011;45933;51.336;12.612;2024-02-21T02:19:56;14.80;;;3.63;;
60060;SDS011;45933;51.336;12.612;2024-02-21T02:22:22;12.20;;;3.47;;
60060;SDS011;45933;51.336;12.612;2024-02-21T02:24:52;12.77;;;3.60;;
60060;SDS011;45933;51.336;12.612;2024-02-21T02:27:17;12.37;;;3.40;;
60060;SDS011;45933;51.336;12.612;2024-02-21T02:29:42;11.30;;;3.40;;
60060;SDS011;45933;51.336;12.612;2024-02-21T02:32:08;14.83;;;3.93;;
60060;SDS011;45933;51.336;12.612;2024-02-21T02:34:34;14.53;;;3.20;;
60060;SDS011;45933;51.336;12.612;2024-02-21T02:36:59;11.77;;;3.80;;
60060;SDS011;45933;51.336;12.612;2024-02-21T02:39:24;11.90;;;4.00;;
60060;SDS011;45933;51.336;12.612;2024-02-21T02:41:49;11.93;;;2.93;;
60060;SDS011;45933;51.336;12.612;2024-02-21T02:44:15;11.40;;;3.47;;
60060;SDS011;45933;51.336;12.612;2024-02-21T02:46:41;12.00;;;3.50;;
60060;SDS011;45933;51.336;12.612;2024-02-21T02:49:06;10.97;;;3.37;;
60060;SDS011;45933;51.336;12.612;2024-02-21T02:51:31;10.77;;;3.60;;
60060;SDS011;45933;51.336;12.612;2024-02-21T02:53:57;10.67;;;3.23;;
60060;SDS011;45933;51.336;12.612;2024-02-21T02:56:22;11.87;;;3.30;;
60060;SDS011;45933;51.336;12.612;2024-02-21T02:58:47;11.37;;;3.27;;
60060;SDS011;45933;51.336;12.612;2024-02-21T03:01:13;11.20;;;3.40;;
60060;SDS011;45933;51.336;12.612;2024-02-21T03:03:38;16.50;;;3.70;;
60060;SDS011;45933;51.336;12.612;2024-02-21T03:06:04;10.30;;;3.50;;
60060;SDS011;45933;51.336;12.612;2024-02-21T03:08:29;9.90;;;3.87;;
60060;SDS011;45933;51.336;12.612;2024-02-21T03:10:54;9.27;;;3.27;;
60060;SDS011;45933;51.336;12.612;2024-02-21T03:13:20;13.93;;;3.70;;
60060;SDS011;45933;51.336;12.612;2024-02-21T03:15:45;14.37;;;3.40;;
60060;SDS011;45933;51.336;12.612;2024-02-21T03:18:10;13.37;;;3.57;;
60060;SDS011;45933;51.336;12.612;2024-02-21T03:20:35;11.17;;;3.20;;
60060;SDS011;45933;51.336;12.612;2024-02-21T03:23:01;14.27;;;3.47;;
60060;SDS011;45933;51.336;12.612;2024-02-21T03:25:26;12.67;;;3.47;;
60060;SDS011;45933;51.336;12.612;2024-02-21T03:27:51;10.23;;;3.50;;
60060;SDS011;45933;51.336;12.612;2024-02-21T03:30:16;10.60;;;3.80;;
60060;SDS011;45933;51.336;12.612;2024-02-21T03:32:42;9.60;;;3.43;;
60060;SDS011;45933;51.336;12.612;2024-02-21T03:35:07;9.83;;;3.50;;
60060;SDS011;45933;51.336;12.612;2024-02-21T03:37:32;11.00;;;3.83;;
60060;SDS011;45933;51.336;12.612;2024-02-21T03:39:57;10.03;;;3.20;;
60060;SDS011;45933;51.336;12.612;2024-02-21T03:42:23;10.90;;;3.23;;
60060;SDS011;45933;51.336;12.612;2024-02-21T03:44:48;13.30;;;3.63;;
60060;SDS011;45933;51.336;12.612;2024-02-21T03:47:13;10.57;;;3.50;;
60060;SDS011;45933;51.336;12.612;2024-02-21T03:49:38;10.73;;;3.53;;
60060;SDS011;45933;51.336;12.612;2024-02-21T03:52:04;11.93;;;3.53;;
60060;SDS011;45933;51.336;12.612;2024-02-21T03:54:29;10.80;;;3.90;;
60060;SDS011;45933;51.336;12.612;2024-02-21T03:56:54;7.97;;;3.30;;
60060;SDS011;45933;51.336;12.612;2024-02-21T03:59:20;12.97;;;3.40;;
60060;SDS011;45933;51.336;12.612;2024-02-21T04:01:47;11.37;;;3.27;;
60060;SDS011;45933;51.336;12.612;2024-02-21T04:04:16;11.17;;;3.80;;
60060;SDS011;45933;51.336;12.612;2024-02-21T04:06:50;14.13;;;3.73;;
60060;SDS011;45933;51.336;12.612;2024-02-21T04:09:17;7.93;;;3.33;;
60060;SDS011;45933;51.336;12.612;2024-02-21T04:11:42;9.10;;;3.57;;
60060;SDS011;45933;51.336;12.612;2024-02-21T04:14:08;11.70;;;3.60;;
60060;SDS011;45933;51.336;12.612;2024-02-21T04:16:34;9.90;;;3.70;;
60060;SDS011;45933;51.336;12.612;2024-02-21T04:18:59;9.23;;;3.77;;
60060;SDS011;45933;51.336;12.612;2024-02-21T04:21:24;8.90;;;3.63;;
60060;SDS011;45933;51.336;12.612;2024-02-21T04:23:50;12.30;;;3.43;;
60060;SDS011;45933;51.336;12.612;2024-02-21T04:26:15;10.20;;;3.47;;
60060;SDS011;45933;51.336;12.612;2024-02-21T04:28:40;13.90;;;3.93;;
60060;SDS011;45933;51.336;12.612;2024-02-21T04:31:06;11.50;;;3.70;;
60060;SDS011;45933;51.336;12.612;2024-02-21T04:33:31;11.23;;;3.53;;
60060;SDS011;45933;51.336;12.612;2024-02-21T04:35:56;16.33;;;4.00;;
60060;SDS011;45933;51.336;12.612;2024-02-21T04:38:23;10.73;;;3.27;;
60060;SDS011;45933;51.336;12.612;2024-02-21T04:40:48;13.80;;;3.63;;
60060;SDS011;45933;51.336;12.612;2024-02-21T04:43:14;11.60;;;3.53;;
60060;SDS011;45933;51.336;12.612;2024-02-21T04:45:39;13.73;;;3.77;;
60060;SDS011;45933;51.336;12.612;2024-02-21T04:48:04;12.00;;;3.60;;
60060;SDS011;45933;51.336;12.612;2024-02-21T04:50:29;8.50;;;3.50;;
60060;SDS011;45933;51.336;12.612;2024-02-21T04:52:55;11.90;;;4.37;;
60060;SDS011;45933;51.336;12.612;2024-02-21T04:55:20;10.47;;;3.33;;
60060;SDS011;45933;51.336;12.612;2024-02-21T04:57:45;11.27;;;3.90;;
60060;SDS011;45933;51.336;12.612;2024-02-21T05:00:11;11.77;;;4.63;;
60060;SDS011;45933;51.336;12.612;2024-02-21T05:02:36;14.13;;;3.93;;
60060;SDS011;45933;51.336;12.612;2024-02-21T05:05:01;12.10;;;4.00;;
60060;SDS011;45933;51.336;12.612;2024-02-21T05:07:27;8.93;;;3.80;;
60060;SDS011;45933;51.336;12.612;2024-02-21T05:09:52;16.40;;;4.03;;
60060;SDS011;45933;51.336;12.612;2024-02-21T05:12:18;12.27;;;4.80;;
60060;SDS011;45933;51.336;12.612;2024-02-21T05:14:43;10.20;;;3.37;;
60060;SDS011;45933;51.336;12.612;2024-02-21T05:17:08;11.67;;;4.00;;
60060;SDS011;45933;51.336;12.612;2024-02-21T05:19:33;10.53;;;4.03;;
60060;SDS011;45933;51.336;12.612;2024-02-21T05:21:59;13.70;;;3.93;;
60060;SDS011;45933;51.336;12.612;2024-02-21T05:24:24;13.13;;;3.90;;
60060;SDS011;45933;51.336;12.612;2024-02-21T05:26:50;9.57;;;3.23;;
60060;SDS011;45933;51.336;12.612;2024-02-21T05:29:15;11.57;;;3.60;;
60060;SDS011;45933;51.336;12.612;2024-02-21T05:34:18;10.40;;;4.07;;
60060;SDS011;45933;51.336;12.612;2024-02-21T05:36:43;9.60;;;3.67;;
60060;SDS011;45933;51.336;12.612;2024-02-21T05:39:09;7.83;;;3.70;;
60060;SDS011;45933;51.336;12.612;2024-02-21T05:41:34;8.63;;;3.57;;
60060;SDS011;45933;51.336;12.612;2024-02-21T05:43:59;11.77;;;3.50;;
60060;SDS011;45933;51.336;12.612;2024-02-21T05:46:25;15.97;;;4.37;;
60060;SDS011;45933;51.336;12.612;2024-02-21T05:48:50;10.03;;;3.40;;
60060;SDS011;45933;51.336;12.612;2024-02-21T05:51:15;9.53;;;3.57;;
60060;SDS011;45933;51.336;12.612;2024-02-21T05:53:41;13.47;;;3.70;;
60060;SDS011;45933;51.336;12.612;2024-02-21T05:56:12;13.27;;;4.33;;
60060;SDS011;45933;51.336;12.612;2024-02-21T05:58:38;12.67;;;3.77;;
60060;SDS011;45933;51.336;12.612;2024-02-21T06:01:04;11.03;;;4.60;;
60060;SDS011;45933;51.336;12.612;2024-02-21T06:03:30;12.47;;;4.00;;
60060;SDS011;45933;51.336;12.612;2024-02-21T06:05:55;10.80;;;4.30;;
60060;SDS011;45933;51.336;12.612;2024-02-21T06:08:21;10.33;;;4.17;;
60060;SDS011;45933;51.336;12.612;2024-02-21T06:10:46;15.13;;;4.20;;
60060;SDS011;45933;51.336;12.612;2024-02-21T06:13:12;15.23;;;4.27;;
60060;SDS011;45933;51.336;12.612;2024-02-21T06:15:37;10.07;;;4.17;;
60060;SDS011;45933;51.336;12.612;2024-02-21T06:18:02;11.30;;;3.87;;
60060;SDS011;45933;51.336;12.612;2024-02-21T06:20:28;15.60;;;4.07;;
60060;SDS011;45933;51.336;12.612;2024-02-21T06:22:53;12.23;;;4.40;;
60060;SDS011;45933;51.336;12.612;2024-02-21T06:25:19;15.17;;;4.93;;
60060;SDS011;45933;51.336;12.612;2024-02-21T06:27:44;11.03;;;4.30;;
60060;SDS011;45933;51.336;12.612;2024-02-21T06:30:09;9.83;;;3.50;;
60060;SDS011;45933;51.336;12.612;2024-02-21T06:32:35;9.80;;;3.93;;
60060;SDS011;45933;51.336;12.612;2024-02-21T06:35:00;10.07;;;4.17;;
60060;SDS011;45933;51.336;12.612;2024-02-21T06:37:26;10.80;;;3.90;;
60060;SDS011;45933;51.336;12.612;2024-02-21T06:39:52;14.07;;;4.37;;
60060;SDS011;45933;51.336;12.612;2024-02-21T06:42:18;15.80;;;4.10;;
60060;SDS011;45933;51.336;12.612;2024-02-21T06:44:44;11.40;;;4.03;;
60060;SDS011;45933;51.336;12.612;2024-02-21T06:47:09;12.80;;;4.23;;
60060;SDS011;45933;51.336;12.612;2024-02-21T06:49:34;10.73;;;3.90;;
60060;SDS011;45933;51.336;12.612;2024-02-21T06:52:01;11.17;;;4.40;;
60060;SDS011;45933;51.336;12.612;2024-02-21T06:54:27;15.20;;;4.20;;
60060;SDS011;45933;51.336;12.612;2024-02-21T06:56:53;14.60;;;5.00;;
60060;SDS011;45933;51.336;12.612;2024-02-21T06:59:18;10.37;;;4.20;;
60060;SDS011;45933;51.336;12.612;2024-02-21T07:01:51;12.57;;;4.47;;
60060;SDS011;45933;51.336;12.612;2024-02-21T07:04:18;14.23;;;4.60;;
60060;SDS011;45933;51.336;12.612;2024-02-21T07:06:43;12.40;;;4.13;;
60060;SDS011;45933;51.336;12.612;2024-02-21T07:09:08;12.57;;;4.77;;
60060;SDS011;45933;51.336;12.612;2024-02-21T07:11:33;12.67;;;4.37;;
60060;SDS011;45933;51.336;12.612;2024-02-21T07:13:59;13.50;;;5.13;;
60060;SDS011;45933;51.336;12.612;2024-02-21T07:16:24;12.53;;;4.50;;
60060;SDS011;45933;51.336;12.612;2024-02-21T07:18:51;13.70;;;4.80;;
60060;SDS011;45933;51.336;12.612;2024-02-21T07:21:16;17.17;;;7.40;;
60060;SDS011;45933;51.336;12.612;2024-02-21T07:23:42;13.73;;;6.10;;
60060;SDS011;45933;51.336;12.612;2024-02-21T07:26:07;15.23;;;5.57;;
60060;SDS011;45933;51.336;12.612;2024-02-21T07:28:32;14.27;;;5.50;;
60060;SDS011;45933;51.336;12.612;2024-02-21T07:30:58;22.43;;;11.47;;
60060;SDS011;45933;51.336;12.612;2024-02-21T07:33:24;19.57;;;10.37;;
60060;SDS011;45933;51.336;12.612;2024-02-21T07:35:49;14.67;;;7.53;;
60060;SDS011;45933;51.336;12.612;2024-02-21T07:38:14;11.70;;;5.67;;
60060;SDS011;45933;51.336;12.612;2024-02-21T07:40:40;13.43;;;5.33;;
60060;SDS011;45933;51.336;12.612;2024-02-21T07:43:05;13.60;;;5.23;;
60060;SDS011;45933;51.336;12.612;2024-02-21T07:45:30;11.70;;;4.83;;
60060;SDS011;45933;51.336;12.612;2024-02-21T07:47:56;13.50;;;4.70;;
60060;SDS011;45933;51.336;12.612;2024-02-21T07:50:21;15.40;;;4.97;;
60060;SDS011;45933;51.336;12.612;2024-02-21T07:52:46;8.33;;;4.67;;
60060;SDS011;45933;51.336;12.612;2024-02-21T07:55:11;13.33;;;5.07;;
60060;SDS011;45933;51.336;12.612;2024-02-21T07:57:37;12.73;;;4.80;;
60060;SDS011;45933;51.336;12.612;2024-02-21T08:00:02;9.80;;;4.50;;
60060;SDS011;45933;51.336;12.612;2024-02-21T08:02:29;13.30;;;5.13;;
60060;SDS011;45933;51.336;12.612;2024-02-21T08:04:54;17.77;;;5.33;;
60060;SDS011;45933;51.336;12.612;2024-02-21T08:07:20;15.67;;;5.00;;
60060;SDS011;45933;51.336;12.612;2024-02-21T08:09:45;10.13;;;4.23;;
60060;SDS011;45933;51.336;12.612;2024-02-21T08:12:10;12.53;;;4.70;;
60060;SDS011;45933;51.336;12.612;2024-02-21T08:14:35;12.10;;;5.03;;
60060;SDS011;45933;51.336;12.612;2024-02-21T08:17:01;13.33;;;4.80;;
60060;SDS011;45933;51.336;12.612;2024-02-21T08:19:26;12.20;;;5.20;;
60060;SDS011;45933;51.336;12.612;2024-02-21T08:21:51;14.20;;;5.23;;
60060;SDS011;45933;51.336;12.612;2024-02-21T08:24:16;12.57;;;4.80;;
60060;SDS011;45933;51.336;12.612;2024-02-21T08:26:42;13.93;;;4.70;;
60060;SDS011;45933;51.336;12.612;2024-02-21T08:29:09;10.97;;;5.63;;
60060;SDS011;45933;51.336;12.612;2024-02-21T08:31:35;12.67;;;5.50;;
60060;SDS011;45933;51.336;12.612;2024-02-21T08:34:00;13.17;;;5.13;;
60060;SDS011;45933;51.336;12.612;2024-02-21T08:36:32;11.20;;;6.43;;
60060;SDS011;45933;51.336;12.612;2024-02-21T08:38:58;10.37;;;5.70;;
60060;SDS011;45933;51.336;12.612;2024-02-21T08:41:24;9.43;;;5.37;;
60060;SDS011;45933;51.336;12.612;2024-02-21T08:43:53;14.23;;;5.80;;
60060;SDS011;45933;51.336;12.612;2024-02-21T08:46:21;12.20;;;5.37;;
60060;SDS011;45933;51.336;12.612;2024-02-21T08:48:47;12.87;;;5.33;;
60060;SDS011;45933;51.336;12.612;2024-02-21T08:51:12;10.77;;;4.93;;
60060;SDS011;45933;51.336;12.612;2024-02-21T08:53:38;16.00;;;5.93;;
60060;SDS011;45933;51.336;12.612;2024-02-21T08:56:04;13.03;;;5.77;;
60060;SDS011;45933;51.336;12.612;2024-02-21T08:58:30;19.57;;;6.13;;
60060;SDS011;45933;51.336;12.612;2024-02-21T09:00:55;12.13;;;5.43;;
60060;SDS011;45933;51.336;12.612;2024-02-21T09:03:21;12.63;;;5.70;;
60060;SDS011;45933;51.336;12.612;2024-02-21T09:05:47;13.43;;;5.70;;
60060;SDS011;45933;51.336;12.612;2024-02-21T09:08:12;9.30;;;5.20;;
60060;SDS011;45933;51.336;12.612;2024-02-21T09:10:39;13.60;;;5.70;;
60060;SDS011;45933;51.336;12.612;2024-02-21T09:13:04;14.17;;;6.40;;
60060;SDS011;45933;51.336;12.612;2024-02-21T09:15:30;18.50;;;7.00;;
60060;SDS011;45933;51.336;12.612;2024-02-21T09:17:55;12.50;;;5.83;;
60060;SDS011;45933;51.336;12.612;2024-02-21T09:20:20;15.00;;;5.30;;
60060;SDS011;45933;51.336;12.612;2024-02-21T09:22:46;14.03;;;5.13;;
60060;SDS011;45933;51.336;12.612;2024-02-21T09:25:11;10.83;;;5.13;;
60060;SDS011;45933;51.336;12.612;2024-02-21T09:27:37;15.83;;;5.70;;
60060;SDS011;45933;51.336;12.612;2024-02-21T09:30:04;14.80;;;5.97;;
60060;SDS011;45933;51.336;12.612;2024-02-21T09:32:30;12.63;;;5.97;;
60060;SDS011;45933;51.336;12.612;2024-02-21T09:34:57;11.87;;;5.20;;
60060;SDS011;45933;51.336;12.612;2024-02-21T09:37:22;13.33;;;5.53;;
60060;SDS011;45933;51.336;12.612;2024-02-21T09:39:47;11.63;;;5.13;;
60060;SDS011;45933;51.336;12.612;2024-02-21T09:42:13;11.10;;;5.47;;
60060;SDS011;45933;51.336;12.612;2024-02-21T09:44:43;14.20;;;5.87;;
60060;SDS011;45933;51.336;12.612;2024-02-21T09:47:12;13.60;;;5.37;;
60060;SDS011;45933;51.336;12.612;2024-02-21T09:49:44;16.00;;;6.10;;
60060;SDS011;45933;51.336;12.612;2024-02-21T09:52:10;11.90;;;5.83;;
60060;SDS011;45933;51.336;12.612;2024-02-21T09:54:39;12.53;;;6.30;;
60060;SDS011;45933;51.336;12.612;2024-02-21T09:57:05;13.23;;;5.73;;
60060;SDS011;45933;51.336;12.612;2024-02-21T09:59:31;12.43;;;6.27;;
60060;SDS011;45933;51.336;12.612;2024-02-21T10:01:57;11.53;;;5.50;;
60060;SDS011;45933;51.336;12.612;2024-02-21T10:04:26;10.37;;;5.50;;
60060;SDS011;45933;51.336;12.612;2024-02-21T10:06:53;15.43;;;6.13;;
60060;SDS011;45933;51.336;12.612;2024-02-21T10:09:25;15.63;;;5.90;;
60060;SDS011;45933;51.336;12.612;2024-02-21T10:11:53;14.77;;;6.23;;
60060;SDS011;45933;51.336;12.612;2024-02-21T10:14:20;18.80;;;6.17;;
60060;SDS011;45933;51.336;12.612;2024-02-21T10:16:48;15.43;;;6.80;;
60060;SDS011;45933;51.336;12.612;2024-02-21T10:19:21;11.03;;;6.00;;
60060;SDS011;45933;51.336;12.612;2024-02-21T10:22:03;14.10;;;5.07;;
60060;SDS011;45933;51.336;12.612;2024-02-21T10:24:30;11.37;;;5.37;;
60060;SDS011;45933;51.336;12.612;2024-02-21T10:27:04;13.27;;;5.73;;
60060;SDS011;45933;51.336;12.612;2024-02-21T10:29:37;12.30;;;5.87;;
60060;SDS011;45933;51.336;12.612;2024-02-21T10:32:03;10.23;;;5.27;;
60060;SDS011;45933;51.336;12.612;2024-02-21T10:34:30;19.47;;;6.30;;
60060;SDS011;45933;51.336;12.612;2024-02-21T10:37:02;16.73;;;6.87;;
60060;SDS011;45933;51.336;12.612;2024-02-21T10:39:33;14.80;;;6.50;;
60060;SDS011;45933;51.336;12.612;2024-02-21T10:42:00;16.43;;;6.63;;
60060;SDS011;45933;51.336;12.612;2024-02-21T10:44:30;14.57;;;7.07;;
60060;SDS011;45933;51.336;12.612;2024-02-21T10:46:57;15.77;;;6.57;;
60060;SDS011;45933;51.336;12.612;2024-02-21T10:49:23;10.10;;;5.93;;
60060;SDS011;45933;51.336;12.612;2024-02-21T10:51:54;12.63;;;6.10;;
60060;SDS011;45933;51.336;12.612;2024-02-21T10:54:45;11.93;;;5.60;;
60060;SDS011;45933;51.336;12.612;2024-02-21T10:57:15;14.57;;;5.80;;
60060;SDS011;45933;51.336;12.612;2024-02-21T10:59:44;11.93;;;5.53;;
60060;SDS011;45933;51.336;12.612;2024-02-21T11:02:10;12.80;;;5.90;;
60060;SDS011;45933;51.336;12.612;2024-02-21T11:04:35;10.73;;;5.30;;
60060;SDS011;45933;51.336;12.612;2024-02-21T11:07:03;15.13;;;6.10;;
60060;SDS011;45933;51.336;12.612;2024-02-21T11:09:30;11.90;;;5.70;;
60060;SDS011;45933;51.336;12.612;2024-02-21T11:12:02;10.40;;;5.63;;
60060;SDS011;45933;51.336;12.612;2024-02-21T11:14:29;14.30;;;6.00;;
60060;SDS011;45933;51.336;12.612;2024-02-21T11:16:57;9.27;;;5.00;;
60060;SDS011;45933;51.336;12.612;2024-02-21T11:19:26;9.80;;;5.67;;
60060;SDS011;45933;51.336;12.612;2024-02-21T11:21:53;16.47;;;6.20;;
60060;SDS011;45933;51.336;12.612;2024-02-21T11:24:29;12.47;;;5.60;;
60060;SDS011;45933;51.336;12.612;2024-02-21T11:26:56;12.13;;;5.37;;
60060;SDS011;45933;51.336;12.612;2024-02-21T11:29:33;10.73;;;4.60;;
60060;SDS011;45933;51.336;12.612;2024-02-21T11:32:04;10.40;;;5.20;;
60060;SDS011;45933;51.336;12.612;2024-02-21T11:34:29;9.20;;;4.83;;
60060;SDS011;45933;51.336;12.612;2024-02-21T11:36:55;10.97;;;5.10;;
60060;SDS011;45933;51.336;12.612;2024-02-21T11:39:26;12.27;;;5.00;;
60060;SDS011;45933;51.336;12.612;2024-02-21T11:44:31;10.63;;;4.90;;
60060;SDS011;45933;51.336;12.612;2024-02-21T11:46:57;10.07;;;4.20;;
60060;SDS011;45933;51.336;12.612;2024-02-21T11:49:28;11.20;;;5.77;;
60060;SDS011;45933;51.336;12.612;2024-02-21T11:52:00;11.37;;;4.53;;
60060;SDS011;45933;51.336;12.612;2024-02-21T11:54:26;8.00;;;4.67;;
60060;SDS011;45933;51.336;12.612;2024-02-21T11:56:52;9.30;;;4.07;;
60060;SDS011;45933;51.336;12.612;2024-02-21T11:59:17;8.80;;;3.97;;
60060;SDS011;45933;51.336;12.612;2024-02-21T12:01:42;8.27;;;4.35;;
60060;SDS011;45933;51.336;12.612;2024-02-21T12:04:08;9.73;;;4.03;;
60060;SDS011;45933;51.336;12.612;2024-02-21T12:06:33;9.17;;;3.77;;
60060;SDS011;45933;51.336;12.612;2024-02-21T12:08:58;7.67;;;3.37;;
60060;SDS011;45933;51.336;12.612;2024-02-21T12:11:24;8.30;;;3.70;;
60060;SDS011;45933;51.336;12.612;2024-02-21T12:13:59;7.63;;;3.40;;
60060;SDS011;45933;51.336;12.612;2024-02-21T12:16:26;8.37;;;3.43;;
60060;SDS011;45933;51.336;12.612;2024-02-21T12:18:53;10.10;;;3.97;;
60060;SDS011;45933;51.336;12.612;2024-02-21T12:21:18;7.40;;;3.43;;
60060;SDS011;45933;51.336;12.612;2024-02-21T12:23:43;9.40;;;4.00;;
60060;SDS011;45933;51.336;12.612;2024-02-21T12:26:09;8.10;;;3.20;;
60060;SDS011;45933;51.336;12.612;2024-02-21T12:28:34;10.73;;;3.73;;
60060;SDS011;45933;51.336;12.612;2024-02-21T12:30:59;7.83;;;3.50;;
60060;SDS011;45933;51.336;12.612;2024-02-21T12:33:25;8.50;;;3.60;;
60060;SDS011;45933;51.336;12.612;2024-02-21T12:35:50;9.03;;;3.57;;
60060;SDS011;45933;51.336;12.612;2024-02-21T12:38:15;7.23;;;3.33;;
60060;SDS011;45933;51.336;12.612;2024-02-21T12:40:42;4.82;;;3.00;;
60060;SDS011;45933;51.336;12.612;2024-02-21T12:43:08;8.17;;;3.50;;
60060;SDS011;45933;51.336;12.612;2024-02-21T12:45:33;7.60;;;3.87;;
60060;SDS011;45933;51.336;12.612;2024-02-21T12:47:59;7.03;;;2.77;;
60060;SDS011;45933;51.336;12.612;2024-02-21T12:50:24;7.47;;;3.40;;
60060;SDS011;45933;51.336;12.612;2024-02-21T12:52:50;7.13;;;3.20;;
60060;SDS011;45933;51.336;12.612;2024-02-21T12:55:16;7.33;;;3.43;;
60060;SDS011;45933;51.336;12.612;2024-02-21T12:57:41;8.57;;;3.43;;
60060;SDS011;45933;51.336;12.612;2024-02-21T13:00:07;4.38;;;2.90;;
60060;SDS011;45933;51.336;12.612;2024-02-21T13:02:34;9.07;;;3.50;;
60060;SDS011;45933;51.336;12.612;2024-02-21T13:04:59;7.78;;;3.42;;
60060;SDS011;45933;51.336;12.612;2024-02-21T13:07:26;7.57;;;3.20;;
60060;SDS011;45933;51.336;12.612;2024-02-21T13:09:52;6.30;;;3.17;;
60060;SDS011;45933;51.336;12.612;2024-02-21T13:12:17;6.88;;;3.22;;
60060;SDS011;45933;51.336;12.612;2024-02-21T13:14:42;7.60;;;2.70;;
60060;SDS011;45933;51.336;12.612;2024-02-21T13:17:09;4.03;;;2.70;;
60060;SDS011;45933;51.336;12.612;2024-02-21T13:19:34;9.82;;;2.60;;
60060;SDS011;45933;51.336;12.612;2024-02-21T13:21:59;5.13;;;2.40;;
60060;SDS011;45933;51.336;12.612;2024-02-21T13:24:25;6.93;;;2.60;;
60060;SDS011;45933;51.336;12.612;2024-02-21T13:26:50;6.45;;;2.55;;
60060;SDS011;45933;51.336;12.612;2024-02-21T13:29:15;4.07;;;2.63;;
60060;SDS011;45933;51.336;12.612;2024-02-21T13:31:40;4.88;;;2.70;;
60060;SDS011;45933;51.336;12.612;2024-02-21T13:34:06;4.90;;;2.58;;
60060;SDS011;45933;51.336;12.612;2024-02-21T13:36:31;5.65;;;2.78;;
60060;SDS011;45933;51.336;12.612;2024-02-21T13:38:56;5.20;;;3.38;;
60060;SDS011;45933;51.336;12.612;2024-02-21T13:41:22;5.10;;;2.50;;
60060;SDS011;45933;51.336;12.612;2024-02-21T13:43:48;5.53;;;2.78;;
60060;SDS011;45933;51.336;12.612;2024-02-21T13:46:13;5.35;;;2.50;;
60060;SDS011;45933;51.336;12.612;2024-02-21T13:48:39;4.85;;;2.60;;
60060;SDS011;45933;51.336;12.612;2024-02-21T13:51:04;3.80;;;2.10;;
60060;SDS011;45933;51.336;12.612;2024-02-21T13:53:29;4.18;;;2.03;;
60060;SDS011;45933;51.336;12.612;2024-02-21T13:55:55;4.63;;;2.17;;
60060;SDS011;45933;51.336;12.612;2024-02-21T13:58:20;6.03;;;2.35;;
60060;SDS011;45933;51.336;12.612;2024-02-21T14:00:46;8.52;;;2.00;;
60060;SDS011;45933;51.336;12.612;2024-02-21T14:03:11;3.58;;;2.03;;
60060;SDS011;45933;51.336;12.612;2024-02-21T14:05:36;5.25;;;2.53;;
60060;SDS011;45933;51.336;12.612;2024-02-21T14:08:01;3.97;;;2.33;;
60060;SDS011;45933;51.336;12.612;2024-02-21T14:10:27;4.95;;;2.10;;
60060;SDS011;45933;51.336;12.612;2024-02-21T14:12:53;4.05;;;2.10;;
60060;SDS011;45933;51.336;12.612;2024-02-21T14:15:18;5.50;;;2.00;;
60060;SDS011;45933;51.336;12.612;2024-02-21T14:17:43;4.10;;;2.30;;
60060;SDS011;45933;51.336;12.612;2024-02-21T14:20:09;5.60;;;2.00;;
60060;SDS011;45933;51.336;12.612;2024-02-21T14:22:35;3.78;;;2.20;;
60060;SDS011;45933;51.336;12.612;2024-02-21T14:25:02;4.78;;;2.40;;